weather.gov     
National Weather Service

Terminal Aerodrome Forecast
NWS Homepage
This page is being discontinued on March 12, 2014.
The same data is available at this site. Please update your bookmarks.
Thank you, and we apologize for the inconvenience.
Please send an email to SR-SRH.Webmaster@noaa.gov with any concerns.


Current Version
Previous Version:    01  02  03  04  05  06  07  08  09  10  11  12  13  14  15  16  17  18  19  20  21  22  23  24  25  26  27  28  29  30  
   31  
[Printable]
508
FTUS43 KSGF 311700
TAFJLN
TAF
KJLN 311720Z 3118/0118 15008KT P6SM BKN120 OVC200
     FM312000 16008KT P6SM VCSH OVC050
     FM312300 17009KT 5SM -RA BR SCT020 OVC040
     FM010300 17012KT 4SM -RA BR OVC015
     FM010500 18012KT 3SM -RA BR OVC007
     FM011500 28015G22KT 4SM -RASN BR OVC007=


U.S. Dept. of Commerce
NOAA National Weather Service
1325 East West Highway
Silver Spring, MD 20910
E-mail: w-nws.webmaster@noaa.gov
Page last modified: May 16, 2007
NATIONAL WEATHER SERVICE: for Safety, for Work, for Fun - FOR LIFE